Portada
METAR-TAF:

METAR-TAF

Aeropuertos :

Aeropuerto de Tébessa

Tébessa, Argelia

latitud: 35-29N, longitud: 008-08E, altitud: 813 m

Observación

El informe se hizo hace 39 minutos, a las 23:00 UTC
Viento 4 kt del este-sureste
Temperatura 21°C
Humedad 49%
Presión 1023 hPa
Visibilidad 10 km o más
Escasas nubes a una altura de 4000 ft

METAR: DABS 182300Z 12004KT 9999 FEW040 21/10 Q1023

Hora: 00:39 (23:39 UTC)

Pronóstico

El informe se hizo hace 39 minutos, a las 23:00 UTC
Pronóstico válido del 19 a las 00 UTC al 19 a las 24 UTC
Viento 8 kt del oeste
Visibilidad 10 km o más
Nubes dispersas a una altura de 4000 ft
Nubes dispersas a una altura de 10000 ft
Probabilidad 30% :
Temporalmente
del 19 a las 12 UTC al 19 a las 22 UTC
Escasas nubes a una altura de 3300 ft, Cumulus congestus.

TAF: DABS 182300Z 1900/1924 28008KT 9999 SCT040 SCT100 PROB30 TEMPO 1912/1922 FEW033TCU

Observaciones y pronósticos meteorológicos de más de 4000 aeropuertos (mensajes METAR y TAF).

Los puntos amarillos y rojos representan las estaciones disponibles.

Ponga el ratón en el punto deseado para ver el nombre de la estación.

Haga clic para ver las observaciones y los pronósticos meteorológicos.

Para cambiar el mapa : haga clic en los botones verdes con una cruz de color negro para hacer un zoom, en el botón verde con un guión para alejar o en las flechas verdes para mapas adyacentes.


METAR-TAF: